sensor_id;sensor_type;location;lat;lon;timestamp;pressure;altitude;pressure_sealevel;temperature;humidity
21760;BME280;11041;50.854;20.580;2023-06-10T00:00:19;98508.88;;;16.49;100.00
21760;BME280;11041;50.854;20.580;2023-06-10T00:03:07;98521.66;;;16.53;100.00
21760;BME280;11041;50.854;20.580;2023-06-10T00:05:35;98521.31;;;16.55;100.00
21760;BME280;11041;50.854;20.580;2023-06-10T00:08:06;98537.13;;;16.54;100.00
21760;BME280;11041;50.854;20.580;2023-06-10T00:10:38;98511.84;;;16.40;100.00
21760;BME280;11041;50.854;20.580;2023-06-10T00:13:06;98511.66;;;16.33;100.00
21760;BME280;11041;50.854;20.580;2023-06-10T00:15:38;98529.31;;;16.40;100.00
21760;BME280;11041;50.854;20.580;2023-06-10T00:18:05;98516.34;;;16.29;100.00
21760;BME280;11041;50.854;20.580;2023-06-10T00:20:31;98517.13;;;16.29;100.00
21760;BME280;11041;50.854;20.580;2023-06-10T00:22:59;98529.13;;;16.33;100.00
21760;BME280;11041;50.854;20.580;2023-06-10T00:25:28;98531.19;;;16.36;100.00
21760;BME280;11041;50.854;20.580;2023-06-10T00:27:55;98535.91;;;16.36;100.00
21760;BME280;11041;50.854;20.580;2023-06-10T00:30:22;98542.34;;;16.40;100.00
21760;BME280;11041;50.854;20.580;2023-06-10T00:32:49;98530.66;;;16.31;100.00
21760;BME280;11041;50.854;20.580;2023-06-10T00:35:16;98519.91;;;16.29;100.00
21760;BME280;11041;50.854;20.580;2023-06-10T00:37:42;98535.03;;;16.32;100.00
21760;BME280;11041;50.854;20.580;2023-06-10T00:40:10;98517.75;;;16.23;100.00
21760;BME280;11041;50.854;20.580;2023-06-10T00:42:37;98533.31;;;16.27;100.00
21760;BME280;11041;50.854;20.580;2023-06-10T00:45:05;98529.56;;;16.19;100.00
21760;BME280;11041;50.854;20.580;2023-06-10T00:47:31;98536.09;;;16.27;100.00
21760;BME280;11041;50.854;20.580;2023-06-10T00:49:58;98539.66;;;16.28;100.00
21760;BME280;11041;50.854;20.580;2023-06-10T00:52:28;98511.50;;;16.10;100.00
21760;BME280;11041;50.854;20.580;2023-06-10T00:54:59;98528.31;;;16.17;100.00
21760;BME280;11041;50.854;20.580;2023-06-10T00:57:26;98534.38;;;16.23;100.00
21760;BME280;11041;50.854;20.580;2023-06-10T00:59:54;98539.47;;;16.21;100.00
21760;BME280;11041;50.854;20.580;2023-06-10T01:02:42;98541.38;;;16.16;100.00
21760;BME280;11041;50.854;20.580;2023-06-10T01:06:06;98543.72;;;16.14;100.00
21760;BME280;11041;50.854;20.580;2023-06-10T01:09:09;98542.00;;;16.10;100.00
21760;BME280;11041;50.854;20.580;2023-06-10T01:12:05;98528.22;;;15.97;100.00
21760;BME280;11041;50.854;20.580;2023-06-10T01:14:36;98535.81;;;16.01;100.00
21760;BME280;11041;50.854;20.580;2023-06-10T01:17:03;98550.59;;;16.05;100.00
21760;BME280;11041;50.854;20.580;2023-06-10T01:19:32;98537.22;;;15.94;100.00
21760;BME280;11041;50.854;20.580;2023-06-10T01:22:00;98525.63;;;15.73;100.00
21760;BME280;11041;50.854;20.580;2023-06-10T01:24:28;98560.69;;;15.97;100.00
21760;BME280;11041;50.854;20.580;2023-06-10T01:27:00;98528.13;;;15.78;100.00
21760;BME280;11041;50.854;20.580;2023-06-10T01:29:43;98560.13;;;15.91;100.00
21760;BME280;11041;50.854;20.580;2023-06-10T01:32:37;98557.53;;;15.83;100.00
21760;BME280;11041;50.854;20.580;2023-06-10T01:35:08;98551.81;;;15.75;100.00
21760;BME280;11041;50.854;20.580;2023-06-10T01:37:35;98544.56;;;15.71;100.00
21760;BME280;11041;50.854;20.580;2023-06-10T01:40:05;98546.16;;;15.72;100.00
21760;BME280;11041;50.854;20.580;2023-06-10T01:42:33;98545.00;;;15.73;100.00
21760;BME280;11041;50.854;20.580;2023-06-10T01:45:00;98541.63;;;15.67;100.00
21760;BME280;11041;50.854;20.580;2023-06-10T01:47:27;98544.06;;;15.69;100.00
21760;BME280;11041;50.854;20.580;2023-06-10T01:49:54;98541.63;;;15.67;100.00
21760;BME280;11041;50.854;20.580;2023-06-10T01:52:27;98536.69;;;15.61;100.00
21760;BME280;11041;50.854;20.580;2023-06-10T01:54:54;98562.44;;;15.73;100.00
21760;BME280;11041;50.854;20.580;2023-06-10T01:57:21;98564.81;;;15.75;100.00
21760;BME280;11041;50.854;20.580;2023-06-10T01:59:47;98575.22;;;15.78;100.00
21760;BME280;11041;50.854;20.580;2023-06-10T02:02:20;98574.38;;;15.77;100.00
21760;BME280;11041;50.854;20.580;2023-06-10T02:04:53;98557.00;;;15.65;100.00
21760;BME280;11041;50.854;20.580;2023-06-10T02:07:20;98563.13;;;15.58;100.00
21760;BME280;11041;50.854;20.580;2023-06-10T02:09:46;98546.69;;;15.49;98.64
21760;BME280;11041;50.854;20.580;2023-06-10T02:12:13;98554.75;;;15.54;98.36
21760;BME280;11041;50.854;20.580;2023-06-10T02:14:40;98548.41;;;15.54;99.15
21760;BME280;11041;50.854;20.580;2023-06-10T02:17:06;98554.50;;;15.60;99.27
21760;BME280;11041;50.854;20.580;2023-06-10T02:19:34;98572.72;;;15.73;99.42
21760;BME280;11041;50.854;20.580;2023-06-10T02:22:23;98576.72;;;15.75;99.81
21760;BME280;11041;50.854;20.580;2023-06-10T02:24:50;98578.94;;;15.70;99.88
21760;BME280;11041;50.854;20.580;2023-06-10T02:27:18;98546.44;;;15.54;100.00
21760;BME280;11041;50.854;20.580;2023-06-10T02:29:45;98568.19;;;15.68;100.00
21760;BME280;11041;50.854;20.580;2023-06-10T02:32:17;98571.41;;;15.70;100.00
21760;BME280;11041;50.854;20.580;2023-06-10T02:34:46;98583.19;;;15.67;100.00
21760;BME280;11041;50.854;20.580;2023-06-10T02:37:15;98575.34;;;15.69;100.00
21760;BME280;11041;50.854;20.580;2023-06-10T02:39:41;98578.34;;;15.64;100.00
21760;BME280;11041;50.854;20.580;2023-06-10T02:42:08;98551.88;;;15.51;100.00
21760;BME280;11041;50.854;20.580;2023-06-10T02:44:35;98565.72;;;15.51;100.00
21760;BME280;11041;50.854;20.580;2023-06-10T02:47:05;98582.28;;;15.63;100.00
21760;BME280;11041;50.854;20.580;2023-06-10T02:49:35;98575.06;;;15.59;100.00
21760;BME280;11041;50.854;20.580;2023-06-10T02:52:02;98554.44;;;15.44;100.00
21760;BME280;11041;50.854;20.580;2023-06-10T02:54:28;98549.00;;;15.47;100.00
21760;BME280;11041;50.854;20.580;2023-06-10T02:56:55;98562.69;;;15.56;100.00
21760;BME280;11041;50.854;20.580;2023-06-10T02:59:24;98564.81;;;15.47;99.17
21760;BME280;11041;50.854;20.580;2023-06-10T03:01:59;98580.34;;;15.64;99.69
21760;BME280;11041;50.854;20.580;2023-06-10T03:04:28;98564.19;;;15.53;99.72
21760;BME280;11041;50.854;20.580;2023-06-10T03:06:55;98590.00;;;15.70;99.61
21760;BME280;11041;50.854;20.580;2023-06-10T03:09:22;98567.53;;;15.59;98.65
21760;BME280;11041;50.854;20.580;2023-06-10T03:11:48;98591.28;;;15.72;98.63
21760;BME280;11041;50.854;20.580;2023-06-10T03:14:15;98581.09;;;15.76;98.75
21760;BME280;11041;50.854;20.580;2023-06-10T03:16:41;98575.47;;;15.73;98.84
21760;BME280;11041;50.854;20.580;2023-06-10T03:19:09;98581.03;;;15.73;99.09
21760;BME280;11041;50.854;20.580;2023-06-10T03:21:36;98591.84;;;15.78;98.46
21760;BME280;11041;50.854;20.580;2023-06-10T03:24:04;98601.03;;;15.82;97.56
21760;BME280;11041;50.854;20.580;2023-06-10T03:26:31;98591.00;;;15.77;96.89
21760;BME280;11041;50.854;20.580;2023-06-10T03:28:58;98605.97;;;15.89;96.85
21760;BME280;11041;50.854;20.580;2023-06-10T03:31:24;98614.22;;;16.01;96.79
21760;BME280;11041;50.854;20.580;2023-06-10T03:33:51;98595.81;;;15.93;96.47
21760;BME280;11041;50.854;20.580;2023-06-10T03:36:17;98612.44;;;16.09;95.82
21760;BME280;11041;50.854;20.580;2023-06-10T03:38:44;98597.13;;;15.99;95.84
21760;BME280;11041;50.854;20.580;2023-06-10T03:41:10;98597.31;;;16.06;95.66
21760;BME280;11041;50.854;20.580;2023-06-10T03:43:38;98625.41;;;16.21;95.54
21760;BME280;11041;50.854;20.580;2023-06-10T03:46:06;98603.50;;;16.15;95.28
21760;BME280;11041;50.854;20.580;2023-06-10T03:48:33;98603.97;;;16.17;94.57
21760;BME280;11041;50.854;20.580;2023-06-10T03:50:59;98599.69;;;16.20;94.22
21760;BME280;11041;50.854;20.580;2023-06-10T03:53:26;98620.19;;;16.31;94.25
21760;BME280;11041;50.854;20.580;2023-06-10T03:55:52;98595.75;;;16.21;93.71
21760;BME280;11041;50.854;20.580;2023-06-10T03:58:19;98630.72;;;16.42;93.77
21760;BME280;11041;50.854;20.580;2023-06-10T04:00:45;98614.63;;;16.31;93.68
21760;BME280;11041;50.854;20.580;2023-06-10T04:03:13;98634.13;;;16.51;93.73
21760;BME280;11041;50.854;20.580;2023-06-10T04:05:41;98626.88;;;16.46;93.14
21760;BME280;11041;50.854;20.580;2023-06-10T04:08:08;98627.78;;;16.50;92.50
21760;BME280;11041;50.854;20.580;2023-06-10T04:10:35;98608.53;;;16.42;92.36
21760;BME280;11041;50.854;20.580;2023-06-10T04:13:02;98611.66;;;16.40;92.28
21760;BME280;11041;50.854;20.580;2023-06-10T04:15:30;98606.94;;;16.40;91.29
21760;BME280;11041;50.854;20.580;2023-06-10T04:17:59;98622.94;;;16.47;90.64
21760;BME280;11041;50.854;20.580;2023-06-10T04:20:27;98642.25;;;16.59;90.58
21760;BME280;11041;50.854;20.580;2023-06-10T04:22:54;98609.44;;;16.46;89.99
21760;BME280;11041;50.854;20.580;2023-06-10T04:25:21;98619.75;;;16.45;89.80
21760;BME280;11041;50.854;20.580;2023-06-10T04:27:47;98633.88;;;16.56;90.22
21760;BME280;11041;50.854;20.580;2023-06-10T04:30:15;98625.44;;;16.52;90.11
21760;BME280;11041;50.854;20.580;2023-06-10T04:32:42;98629.50;;;16.55;90.39
21760;BME280;11041;50.854;20.580;2023-06-10T04:35:12;98632.63;;;16.53;90.51
21760;BME280;11041;50.854;20.580;2023-06-10T04:37:40;98624.56;;;16.48;90.33
21760;BME280;11041;50.854;20.580;2023-06-10T04:40:08;98615.69;;;16.43;90.55
21760;BME280;11041;50.854;20.580;2023-06-10T04:42:35;98635.91;;;16.59;90.67
21760;BME280;11041;50.854;20.580;2023-06-10T04:45:02;98643.78;;;16.57;90.48
21760;BME280;11041;50.854;20.580;2023-06-10T04:47:30;98637.44;;;16.56;91.03
21760;BME280;11041;50.854;20.580;2023-06-10T04:50:01;98646.94;;;16.55;91.40
21760;BME280;11041;50.854;20.580;2023-06-10T04:52:28;98627.06;;;16.37;91.58
21760;BME280;11041;50.854;20.580;2023-06-10T04:54:54;98626.59;;;16.35;92.32
21760;BME280;11041;50.854;20.580;2023-06-10T04:57:21;98646.31;;;16.46;92.70
21760;BME280;11041;50.854;20.580;2023-06-10T04:59:48;98636.09;;;16.34;92.90
21760;BME280;11041;50.854;20.580;2023-06-10T05:02:14;98643.22;;;16.35;93.26
21760;BME280;11041;50.854;20.580;2023-06-10T05:04:41;98641.63;;;16.34;93.71
21760;BME280;11041;50.854;20.580;2023-06-10T05:07:08;98642.63;;;16.26;94.12
21760;BME280;11041;50.854;20.580;2023-06-10T05:09:35;98642.44;;;16.19;94.66
21760;BME280;11041;50.854;20.580;2023-06-10T05:12:02;98655.19;;;16.08;97.00
21760;BME280;11041;50.854;20.580;2023-06-10T05:14:29;98660.06;;;15.98;98.62
21760;BME280;11041;50.854;20.580;2023-06-10T05:16:56;98655.09;;;15.76;100.00
21760;BME280;11041;50.854;20.580;2023-06-10T05:19:23;98688.34;;;15.76;100.00
21760;BME280;11041;50.854;20.580;2023-06-10T05:21:49;98662.72;;;15.67;100.00
21760;BME280;11041;50.854;20.580;2023-06-10T05:24:16;98649.13;;;15.62;100.00
21760;BME280;11041;50.854;20.580;2023-06-10T05:26:45;98656.00;;;15.68;100.00
21760;BME280;11041;50.854;20.580;2023-06-10T05:29:13;98647.06;;;15.59;100.00
21760;BME280;11041;50.854;20.580;2023-06-10T05:31:39;98656.38;;;15.66;100.00
21760;BME280;11041;50.854;20.580;2023-06-10T05:34:06;98675.84;;;15.82;100.00
21760;BME280;11041;50.854;20.580;2023-06-10T05:36:32;98677.22;;;15.88;100.00
21760;BME280;11041;50.854;20.580;2023-06-10T05:38:59;98673.72;;;15.91;100.00
21760;BME280;11041;50.854;20.580;2023-06-10T05:41:25;98682.09;;;16.07;100.00
21760;BME280;11041;50.854;20.580;2023-06-10T05:43:52;98678.34;;;16.15;100.00
21760;BME280;11041;50.854;20.580;2023-06-10T05:46:20;98654.00;;;16.09;100.00
21760;BME280;11041;50.854;20.580;2023-06-10T05:48:47;98690.13;;;16.40;100.00
21760;BME280;11041;50.854;20.580;2023-06-10T05:51:13;98702.22;;;16.48;100.00
21760;BME280;11041;50.854;20.580;2023-06-10T05:53:40;98678.41;;;16.47;100.00
21760;BME280;11041;50.854;20.580;2023-06-10T05:56:06;98668.03;;;16.44;100.00
21760;BME280;11041;50.854;20.580;2023-06-10T05:58:33;98695.06;;;16.63;100.00
21760;BME280;11041;50.854;20.580;2023-06-10T06:01:00;98682.91;;;16.68;100.00
21760;BME280;11041;50.854;20.580;2023-06-10T06:03:26;98702.34;;;16.83;100.00
21760;BME280;11041;50.854;20.580;2023-06-10T06:05:55;98668.03;;;16.76;100.00
21760;BME280;11041;50.854;20.580;2023-06-10T06:08:21;98695.09;;;16.95;100.00
21760;BME280;11041;50.854;20.580;2023-06-10T06:10:48;98699.03;;;17.10;100.00
21760;BME280;11041;50.854;20.580;2023-06-10T06:13:14;98676.56;;;16.99;100.00
21760;BME280;11041;50.854;20.580;2023-06-10T06:15:41;98695.56;;;17.13;100.00
21760;BME280;11041;50.854;20.580;2023-06-10T06:18:07;98697.94;;;17.14;100.00
21760;BME280;11041;50.854;20.580;2023-06-10T06:20:34;98687.47;;;17.23;100.00
21760;BME280;11041;50.854;20.580;2023-06-10T06:23:00;98670.28;;;17.18;100.00
21760;BME280;11041;50.854;20.580;2023-06-10T06:25:28;98693.00;;;17.23;100.00
21760;BME280;11041;50.854;20.580;2023-06-10T06:27:54;98668.69;;;17.01;100.00
21760;BME280;11041;50.854;20.580;2023-06-10T06:30:21;98668.69;;;17.01;100.00
21760;BME280;11041;50.854;20.580;2023-06-10T06:32:47;98698.84;;;17.18;100.00
21760;BME280;11041;50.854;20.580;2023-06-10T06:35:14;98697.94;;;17.14;100.00
21760;BME280;11041;50.854;20.580;2023-06-10T06:37:40;98674.25;;;16.85;99.10
21760;BME280;11041;50.854;20.580;2023-06-10T06:40:08;98698.78;;;16.83;98.83
21760;BME280;11041;50.854;20.580;2023-06-10T06:42:34;98692.66;;;16.77;99.85
21760;BME280;11041;50.854;20.580;2023-06-10T06:45:01;98697.88;;;16.95;100.00
21760;BME280;11041;50.854;20.580;2023-06-10T06:47:27;98692.78;;;16.97;100.00
21760;BME280;11041;50.854;20.580;2023-06-10T06:49:54;98710.69;;;17.15;100.00
21760;BME280;11041;50.854;20.580;2023-06-10T06:52:20;98681.22;;;16.95;100.00
21760;BME280;11041;50.854;20.580;2023-06-10T06:54:48;98716.94;;;17.12;100.00
21760;BME280;11041;50.854;20.580;2023-06-10T06:57:15;98731.44;;;17.21;100.00
21760;BME280;11041;50.854;20.580;2023-06-10T06:59:42;98725.19;;;17.24;100.00
21760;BME280;11041;50.854;20.580;2023-06-10T07:02:08;98720.34;;;17.21;99.65
21760;BME280;11041;50.854;20.580;2023-06-10T07:04:35;98705.75;;;17.09;99.44
21760;BME280;11041;50.854;20.580;2023-06-10T07:07:02;98721.34;;;17.13;99.23
21760;BME280;11041;50.854;20.580;2023-06-10T07:09:29;98718.72;;;17.20;99.81
21760;BME280;11041;50.854;20.580;2023-06-10T07:11:55;98715.50;;;17.18;99.38
21760;BME280;11041;50.854;20.580;2023-06-10T07:14:22;98698.16;;;17.06;97.77
21760;BME280;11041;50.854;20.580;2023-06-10T07:16:48;98706.47;;;17.06;98.64
21760;BME280;11041;50.854;20.580;2023-06-10T07:19:16;98735.34;;;17.36;99.18
21760;BME280;11041;50.854;20.580;2023-06-10T07:21:43;98716.84;;;17.24;98.28
21760;BME280;11041;50.854;20.580;2023-06-10T07:24:10;98732.41;;;17.45;99.26
21760;BME280;11041;50.854;20.580;2023-06-10T07:26:36;98741.28;;;17.70;99.28
21760;BME280;11041;50.854;20.580;2023-06-10T07:29:03;98737.59;;;17.82;99.46
21760;BME280;11041;50.854;20.580;2023-06-10T07:31:29;98748.59;;;17.94;97.40
21760;BME280;11041;50.854;20.580;2023-06-10T07:33:56;98743.13;;;17.98;96.39
21760;BME280;11041;50.854;20.580;2023-06-10T07:36:22;98724.91;;;18.00;97.01
21760;BME280;11041;50.854;20.580;2023-06-10T07:38:49;98727.09;;;18.10;96.71
21760;BME280;11041;50.854;20.580;2023-06-10T07:41:15;98741.38;;;18.28;96.37
21760;BME280;11041;50.854;20.580;2023-06-10T07:43:44;98728.69;;;18.31;96.15
21760;BME280;11041;50.854;20.580;2023-06-10T07:46:11;98737.94;;;18.35;93.49
21760;BME280;11041;50.854;20.580;2023-06-10T07:48:37;98730.09;;;18.21;92.39
21760;BME280;11041;50.854;20.580;2023-06-10T07:51:04;98749.78;;;18.32;93.51
21760;BME280;11041;50.854;20.580;2023-06-10T07:53:30;98739.38;;;18.29;91.86
21760;BME280;11041;50.854;20.580;2023-06-10T07:55:57;98757.25;;;18.47;92.61
21760;BME280;11041;50.854;20.580;2023-06-10T07:58:23;98761.19;;;18.46;91.40
21760;BME280;11041;50.854;20.580;2023-06-10T08:00:50;98742.75;;;18.38;90.78
21760;BME280;11041;50.854;20.580;2023-06-10T08:03:17;98760.44;;;18.49;90.66
21760;BME280;11041;50.854;20.580;2023-06-10T08:05:43;98770.59;;;18.61;89.24
21760;BME280;11041;50.854;20.580;2023-06-10T08:08:10;98741.66;;;18.43;88.83
21760;BME280;11041;50.854;20.580;2023-06-10T08:10:36;98767.81;;;18.61;90.37
21760;BME280;11041;50.854;20.580;2023-06-10T08:13:03;98754.44;;;18.67;91.59
21760;BME280;11041;50.854;20.580;2023-06-10T08:15:30;98748.28;;;18.77;90.40
21760;BME280;11041;50.854;20.580;2023-06-10T08:17:56;98750.09;;;18.89;86.65
21760;BME280;11041;50.854;20.580;2023-06-10T08:20:23;98739.81;;;18.73;85.41
21760;BME280;11041;50.854;20.580;2023-06-10T08:22:49;98769.69;;;18.96;86.63
21760;BME280;11041;50.854;20.580;2023-06-10T08:25:16;98768.28;;;19.06;86.54
21760;BME280;11041;50.854;20.580;2023-06-10T08:27:42;98749.53;;;19.03;85.34
21760;BME280;11041;50.854;20.580;2023-06-10T08:30:09;98766.16;;;19.22;83.91
21760;BME280;11041;50.854;20.580;2023-06-10T08:32:37;98757.59;;;19.34;85.55
21760;BME280;11041;50.854;20.580;2023-06-10T08:35:04;98770.00;;;19.64;84.98
21760;BME280;11041;50.854;20.580;2023-06-10T08:37:31;98767.19;;;19.87;83.92
21760;BME280;11041;50.854;20.580;2023-06-10T08:39:58;98775.53;;;20.17;82.90
21760;BME280;11041;50.854;20.580;2023-06-10T08:42:47;98766.28;;;20.43;84.85
21760;BME280;11041;50.854;20.580;2023-06-10T08:45:18;98754.13;;;20.58;81.87
21760;BME280;11041;50.854;20.580;2023-06-10T08:47:46;98771.94;;;20.84;81.79
21760;BME280;11041;50.854;20.580;2023-06-10T08:50:19;98765.56;;;20.83;78.64
21760;BME280;11041;50.854;20.580;2023-06-10T08:52:49;98769.09;;;20.77;75.61
21760;BME280;11041;50.854;20.580;2023-06-10T08:55:38;98779.31;;;20.66;76.61
21760;BME280;11041;50.854;20.580;2023-06-10T08:58:08;98765.78;;;20.34;74.89
21760;BME280;11041;50.854;20.580;2023-06-10T09:00:35;98744.34;;;20.08;76.78
21760;BME280;11041;50.854;20.580;2023-06-10T09:03:04;98764.44;;;20.20;77.74
21760;BME280;11041;50.854;20.580;2023-06-10T09:05:34;98765.59;;;20.19;75.60
21760;BME280;11041;50.854;20.580;2023-06-10T09:08:03;98757.53;;;20.11;76.33
21760;BME280;11041;50.854;20.580;2023-06-10T09:10:30;98771.03;;;20.39;78.60
21760;BME280;11041;50.854;20.580;2023-06-10T09:12:57;98756.00;;;20.51;76.07
21760;BME280;11041;50.854;20.580;2023-06-10T09:15:24;98770.50;;;20.60;74.07
21760;BME280;11041;50.854;20.580;2023-06-10T09:17:51;98742.31;;;20.38;74.42
21760;BME280;11041;50.854;20.580;2023-06-10T09:20:18;98781.09;;;20.81;75.74
21760;BME280;11041;50.854;20.580;2023-06-10T09:22:45;98753.59;;;20.83;73.35
21760;BME280;11041;50.854;20.580;2023-06-10T09:25:14;98773.34;;;21.04;72.01
21760;BME280;11041;50.854;20.580;2023-06-10T09:27:49;98783.88;;;21.22;73.30
21760;BME280;11041;50.854;20.580;2023-06-10T09:30:33;98770.28;;;21.17;71.84
21760;BME280;11041;50.854;20.580;2023-06-10T09:33:03;98767.00;;;21.11;75.19
21760;BME280;11041;50.854;20.580;2023-06-10T09:35:35;98750.22;;;21.08;73.26
21760;BME280;11041;50.854;20.580;2023-06-10T09:38:02;98771.50;;;21.19;72.87
21760;BME280;11041;50.854;20.580;2023-06-10T09:40:29;98779.13;;;21.26;68.70
21760;BME280;11041;50.854;20.580;2023-06-10T09:43:01;98751.41;;;21.06;68.59
21760;BME280;11041;50.854;20.580;2023-06-10T09:45:31;98780.91;;;21.00;70.23
21760;BME280;11041;50.854;20.580;2023-06-10T09:47:58;98768.03;;;20.92;69.94
21760;BME280;11041;50.854;20.580;2023-06-10T09:50:25;98782.00;;;20.92;65.88
21760;BME280;11041;50.854;20.580;2023-06-10T09:52:52;98790.38;;;20.92;65.49
21760;BME280;11041;50.854;20.580;2023-06-10T09:55:19;98769.09;;;20.80;64.99
21760;BME280;11041;50.854;20.580;2023-06-10T09:57:49;98780.94;;;20.67;64.37
21760;BME280;11041;50.854;20.580;2023-06-10T10:00:18;98768.94;;;20.62;65.99
21760;BME280;11041;50.854;20.580;2023-06-10T10:02:50;98779.66;;;20.57;65.46
21760;BME280;11041;50.854;20.580;2023-06-10T10:05:20;98776.69;;;20.46;66.83
21760;BME280;11041;50.854;20.580;2023-06-10T10:07:48;98787.06;;;20.46;67.23
21760;BME280;11041;50.854;20.580;2023-06-10T10:10:18;98773.53;;;20.48;67.39
21760;BME280;11041;50.854;20.580;2023-06-10T10:12:47;98767.75;;;20.63;68.22
21760;BME280;11041;50.854;20.580;2023-06-10T10:15:17;98756.97;;;20.62;68.39
21760;BME280;11041;50.854;20.580;2023-06-10T10:20:33;98756.84;;;20.92;67.21
21760;BME280;11041;50.854;20.580;2023-06-10T10:23:04;98767.88;;;21.19;66.06
21760;BME280;11041;50.854;20.580;2023-06-10T10:25:41;98751.16;;;21.22;67.23
21760;BME280;11041;50.854;20.580;2023-06-10T10:28:41;98748.13;;;21.42;66.54
21760;BME280;11041;50.854;20.580;2023-06-10T10:31:09;98770.72;;;21.74;68.28
21760;BME280;11041;50.854;20.580;2023-06-10T10:33:59;98773.72;;;22.10;67.88
21760;BME280;11041;50.854;20.580;2023-06-10T10:36:27;98768.25;;;22.28;66.78
21760;BME280;11041;50.854;20.580;2023-06-10T10:38:56;98769.50;;;22.41;62.35
21760;BME280;11041;50.854;20.580;2023-06-10T10:41:24;98769.84;;;22.29;62.66
21760;BME280;11041;50.854;20.580;2023-06-10T10:43:53;98753.81;;;22.22;62.69
21760;BME280;11041;50.854;20.580;2023-06-10T10:46:20;98766.69;;;22.38;63.43
21760;BME280;11041;50.854;20.580;2023-06-10T10:48:53;98748.53;;;22.10;62.24
21760;BME280;11041;50.854;20.580;2023-06-10T10:51:24;98774.25;;;22.30;65.32
21760;BME280;11041;50.854;20.580;2023-06-10T10:54:12;98782.22;;;22.21;61.58
21760;BME280;11041;50.854;20.580;2023-06-10T10:59:55;98754.13;;;22.10;64.00
21760;BME280;11041;50.854;20.580;2023-06-10T11:02:44;98760.59;;;22.18;65.08
21760;BME280;11041;50.854;20.580;2023-06-10T11:05:16;98747.03;;;22.27;66.09
21760;BME280;11041;50.854;20.580;2023-06-10T11:07:55;98753.09;;;22.40;62.08
21760;BME280;11041;50.854;20.580;2023-06-10T11:10:36;98753.53;;;22.42;62.37
21760;BME280;11041;50.854;20.580;2023-06-10T11:13:07;98735.47;;;22.32;63.79
21760;BME280;11041;50.854;20.580;2023-06-10T11:15:48;98726.69;;;22.37;63.00
21760;BME280;11041;50.854;20.580;2023-06-10T11:18:40;98749.13;;;22.44;62.53
21760;BME280;11041;50.854;20.580;2023-06-10T11:21:07;98750.28;;;22.32;60.69
21760;BME280;11041;50.854;20.580;2023-06-10T11:23:41;98729.78;;;22.14;60.92
21760;BME280;11041;50.854;20.580;2023-06-10T11:26:29;98739.09;;;22.36;62.10
21760;BME280;11041;50.854;20.580;2023-06-10T11:29:05;98720.69;;;22.35;59.34
21760;BME280;11041;50.854;20.580;2023-06-10T11:31:43;98723.03;;;22.22;59.92
21760;BME280;11041;50.854;20.580;2023-06-10T11:34:10;98702.97;;;22.06;63.10
21760;BME280;11041;50.854;20.580;2023-06-10T11:36:42;98731.88;;;22.31;59.90
21760;BME280;11041;50.854;20.580;2023-06-10T11:39:11;98732.69;;;22.36;60.21
21760;BME280;11041;50.854;20.580;2023-06-10T11:41:39;98731.97;;;22.57;63.43
21760;BME280;11041;50.854;20.580;2023-06-10T11:44:11;98713.56;;;22.77;61.17
21760;BME280;11041;50.854;20.580;2023-06-10T11:46:39;98730.00;;;22.93;62.40
21760;BME280;11041;50.854;20.580;2023-06-10T11:49:06;98727.63;;;22.95;61.09
21760;BME280;11041;50.854;20.580;2023-06-10T11:51:38;98708.03;;;23.02;59.30
21760;BME280;11041;50.854;20.580;2023-06-10T11:54:09;98714.41;;;22.95;61.18
21760;BME280;11041;50.854;20.580;2023-06-10T11:56:36;98709.19;;;22.90;60.80
21760;BME280;11041;50.854;20.580;2023-06-10T11:59:07;98723.97;;;22.87;59.80
21760;BME280;11041;50.854;20.580;2023-06-10T12:01:36;98727.53;;;22.48;57.13
21760;BME280;11041;50.854;20.580;2023-06-10T12:04:10;98714.72;;;22.40;57.42
21760;BME280;11041;50.854;20.580;2023-06-10T12:06:45;98732.31;;;22.48;57.82
21760;BME280;11041;50.854;20.580;2023-06-10T12:09:26;98723.13;;;22.51;56.73
21760;BME280;11041;50.854;20.580;2023-06-10T12:12:03;98711.13;;;22.50;56.40
21760;BME280;11041;50.854;20.580;2023-06-10T12:14:51;98718.41;;;22.84;56.14
21760;BME280;11041;50.854;20.580;2023-06-10T12:17:22;98692.38;;;22.80;57.45
21760;BME280;11041;50.854;20.580;2023-06-10T12:19:51;98711.63;;;23.17;57.29
21760;BME280;11041;50.854;20.580;2023-06-10T12:22:17;98706.41;;;23.44;56.28
21760;BME280;11041;50.854;20.580;2023-06-10T12:24:58;98724.81;;;23.56;55.60
21760;BME280;11041;50.854;20.580;2023-06-10T12:27:33;98711.22;;;23.44;56.84
21760;BME280;11041;50.854;20.580;2023-06-10T12:30:03;98694.03;;;23.24;60.39
21760;BME280;11041;50.854;20.580;2023-06-10T12:32:45;98702.78;;;23.33;59.79
21760;BME280;11041;50.854;20.580;2023-06-10T12:35:32;98730.06;;;23.36;59.76
21760;BME280;11041;50.854;20.580;2023-06-10T12:38:04;98709.19;;;22.94;59.88
21760;BME280;11041;50.854;20.580;2023-06-10T12:40:39;98738.06;;;22.98;60.96
21760;BME280;11041;50.854;20.580;2023-06-10T12:43:09;98740.84;;;23.02;60.42
21760;BME280;11041;50.854;20.580;2023-06-10T12:45:39;98730.00;;;22.89;59.80
21760;BME280;11041;50.854;20.580;2023-06-10T12:48:20;98727.25;;;23.00;60.80
21760;BME280;11041;50.854;20.580;2023-06-10T12:50:53;98712.44;;;23.00;60.06
21760;BME280;11041;50.854;20.580;2023-06-10T12:53:21;98722.06;;;23.31;61.30
21760;BME280;11041;50.854;20.580;2023-06-10T12:55:51;98705.22;;;23.45;58.88
21760;BME280;11041;50.854;20.580;2023-06-10T12:58:20;98697.97;;;23.51;58.51
21760;BME280;11041;50.854;20.580;2023-06-10T13:00:48;98713.22;;;23.11;58.08
21760;BME280;11041;50.854;20.580;2023-06-10T13:03:15;98722.41;;;22.75;58.95
21760;BME280;11041;50.854;20.580;2023-06-10T13:05:43;98703.16;;;22.60;60.16